createdAt,value
2023-03-20T00:01:56.191Z,8.30
2023-03-20T00:04:22.985Z,8.16
2023-03-20T00:06:49.425Z,8.24
2023-03-20T00:09:15.823Z,8.26
2023-03-20T00:11:51.103Z,8.19
2023-03-20T00:14:20.540Z,8.23
2023-03-20T00:16:49.044Z,8.21
2023-03-20T00:19:24.432Z,8.25
2023-03-20T00:21:52.101Z,8.25
2023-03-20T00:24:18.922Z,8.27
2023-03-20T00:26:47.010Z,8.21
2023-03-20T00:29:24.224Z,8.25
2023-03-20T00:31:51.335Z,8.27
2023-03-20T00:34:19.885Z,8.24
2023-03-20T00:36:47.150Z,8.27
2023-03-20T00:39:13.693Z,8.32
2023-03-20T00:41:49.057Z,8.36
2023-03-20T00:44:20.630Z,8.27
2023-03-20T00:46:51.987Z,8.19
2023-03-20T00:49:24.626Z,8.17
2023-03-20T00:51:51.029Z,8.10
2023-03-20T00:54:17.796Z,8.15
2023-03-20T00:57:06.662Z,8.13
2023-03-20T00:59:43.277Z,8.13
2023-03-20T01:02:14.790Z,8.10
2023-03-20T01:04:42.529Z,8.09
2023-03-20T01:07:14.502Z,8.09
2023-03-20T01:09:41.658Z,7.97
2023-03-20T01:12:10.580Z,8.01
2023-03-20T01:14:37.040Z,8.13
2023-03-20T01:17:03.879Z,8.06
2023-03-20T01:19:30.405Z,8.11
2023-03-20T01:21:56.821Z,8.15
2023-03-20T01:24:23.244Z,8.18
2023-03-20T01:26:51.737Z,8.25
2023-03-20T01:29:19.872Z,8.20
2023-03-20T01:31:47.132Z,8.14
2023-03-20T01:34:13.692Z,8.11
2023-03-20T01:36:40.455Z,8.07
2023-03-20T01:39:06.903Z,7.97
2023-03-20T01:41:33.418Z,7.97
2023-03-20T01:44:17.002Z,7.95
2023-03-20T01:46:43.845Z,7.85
2023-03-20T01:49:19.447Z,7.86
2023-03-20T01:51:47.236Z,7.97
2023-03-20T01:54:37.623Z,7.95
2023-03-20T01:57:12.495Z,7.99
2023-03-20T01:59:47.481Z,7.99
2023-03-20T02:02:21.470Z,8.01
2023-03-20T02:04:53.131Z,8.04
2023-03-20T02:07:23.299Z,8.07
2023-03-20T02:09:50.856Z,7.95
2023-03-20T02:12:18.340Z,7.92
2023-03-20T02:14:46.935Z,7.94
2023-03-20T02:17:14.164Z,7.95
2023-03-20T02:19:52.913Z,7.97
2023-03-20T02:22:33.198Z,7.95
2023-03-20T02:25:27.560Z,7.88
2023-03-20T02:28:12.550Z,7.90
2023-03-20T02:30:56.926Z,7.88
2023-03-20T02:34:22.420Z,7.87
2023-03-20T02:37:07.624Z,7.93
2023-03-20T02:39:40.297Z,7.90
2023-03-20T02:42:11.044Z,7.95
2023-03-20T02:44:58.861Z,7.95
2023-03-20T02:47:49.983Z,7.94
2023-03-20T02:50:31.975Z,7.86
2023-03-20T02:53:06.681Z,7.88
2023-03-20T02:55:44.059Z,7.92
2023-03-20T02:58:26.646Z,7.92
2023-03-20T03:01:03.591Z,7.88
2023-03-20T03:03:38.282Z,7.82
2023-03-20T03:06:18.875Z,7.79
2023-03-20T03:08:52.611Z,7.71
2023-03-20T03:11:19.064Z,7.72
2023-03-20T03:13:52.105Z,7.76
2023-03-20T03:16:24.315Z,7.78
2023-03-20T03:19:01.700Z,7.71
2023-03-20T03:21:30.393Z,7.78
2023-03-20T03:23:56.852Z,7.66
2023-03-20T03:26:31.463Z,7.64
2023-03-20T03:29:03.860Z,7.74
2023-03-20T03:31:32.717Z,7.84
2023-03-20T03:34:01.385Z,7.81
2023-03-20T03:36:41.381Z,7.81
2023-03-20T03:39:27.943Z,7.70
2023-03-20T03:42:11.501Z,7.62
2023-03-20T03:44:59.645Z,7.70
2023-03-20T03:47:35.487Z,7.58
2023-03-20T03:50:14.400Z,7.59
2023-03-20T03:52:43.481Z,7.70
2023-03-20T03:55:24.377Z,7.77
2023-03-20T03:57:58.155Z,7.74
2023-03-20T04:00:27.343Z,7.75
2023-03-20T04:02:56.415Z,7.68
2023-03-20T04:05:25.297Z,7.81
2023-03-20T04:07:56.540Z,7.85
2023-03-20T04:10:23.006Z,7.82
2023-03-20T04:12:49.664Z,7.83
2023-03-20T04:15:16.989Z,7.70
2023-03-20T04:17:44.557Z,7.59
2023-03-20T04:20:12.475Z,7.58
2023-03-20T04:22:39.193Z,7.66
2023-03-20T04:25:07.897Z,7.66
2023-03-20T04:27:34.324Z,7.67
2023-03-20T04:30:00.738Z,7.70
2023-03-20T04:32:27.224Z,7.78
2023-03-20T04:34:53.665Z,7.73
2023-03-20T04:37:20.221Z,7.73
2023-03-20T04:39:47.633Z,7.71
2023-03-20T04:42:15.676Z,7.70
2023-03-20T04:44:42.082Z,7.76
2023-03-20T04:47:08.567Z,7.73
2023-03-20T04:49:35.361Z,7.73
2023-03-20T04:52:01.915Z,7.68
2023-03-20T04:54:28.445Z,7.76
2023-03-20T04:56:54.881Z,7.65
2023-03-20T04:59:21.409Z,7.63
2023-03-20T05:01:47.953Z,7.67
2023-03-20T05:04:14.437Z,7.73
2023-03-20T05:06:42.054Z,7.73
2023-03-20T05:09:08.453Z,7.79
2023-03-20T05:11:34.873Z,7.57
2023-03-20T05:14:05.297Z,7.67
2023-03-20T05:16:31.737Z,7.75
2023-03-20T05:18:58.168Z,7.81
2023-03-20T05:21:25.822Z,7.76
2023-03-20T05:23:52.344Z,7.75
2023-03-20T05:26:18.782Z,7.78
2023-03-20T05:28:45.272Z,7.79
2023-03-20T05:31:11.976Z,7.78
2023-03-20T05:33:38.850Z,7.81
2023-03-20T05:36:06.280Z,7.66
2023-03-20T05:38:32.864Z,7.76
2023-03-20T05:41:01.424Z,7.78
2023-03-20T05:43:29.145Z,7.75
2023-03-20T05:45:56.662Z,7.74
2023-03-20T05:48:23.899Z,7.74
2023-03-20T05:50:50.519Z,7.81
2023-03-20T05:53:17.063Z,7.76
2023-03-20T05:55:44.712Z,7.62
2023-03-20T05:58:12.081Z,7.67
2023-03-20T06:00:39.453Z,7.68
2023-03-20T06:03:06.988Z,7.83
2023-03-20T06:05:34.627Z,7.95
2023-03-20T06:08:01.708Z,8.01
2023-03-20T06:10:30.088Z,8.01
2023-03-20T06:12:58.136Z,8.05
2023-03-20T06:15:24.846Z,8.07
2023-03-20T06:17:51.307Z,8.11
2023-03-20T06:20:17.928Z,8.13
2023-03-20T06:22:46.061Z,8.18
2023-03-20T06:25:13.049Z,8.20
2023-03-20T06:27:39.809Z,8.22
2023-03-20T06:30:06.732Z,8.28
2023-03-20T06:32:33.232Z,8.31
2023-03-20T06:34:59.699Z,8.35
2023-03-20T06:37:26.170Z,8.37
2023-03-20T06:39:52.598Z,8.57
2023-03-20T06:42:21.263Z,8.63
2023-03-20T06:44:47.741Z,8.78
2023-03-20T06:47:14.536Z,8.99
2023-03-20T06:49:41.897Z,9.06
2023-03-20T06:52:16.495Z,9.13
2023-03-20T06:54:43.608Z,9.21
2023-03-20T06:57:13.935Z,8.76
2023-03-20T06:59:41.562Z,8.76
2023-03-20T07:02:09.881Z,8.92
2023-03-20T07:04:37.155Z,8.89
2023-03-20T07:07:03.687Z,8.85
2023-03-20T07:09:30.351Z,9.06
2023-03-20T07:11:56.751Z,9.09
2023-03-20T07:14:23.295Z,9.12
2023-03-20T07:16:49.772Z,9.16
2023-03-20T07:19:16.442Z,9.15
2023-03-20T07:21:43.756Z,9.19
2023-03-20T07:24:10.198Z,9.30
2023-03-20T07:26:36.785Z,9.21
2023-03-20T07:29:03.360Z,9.29
2023-03-20T07:31:31.171Z,9.30
2023-03-20T07:33:58.247Z,9.21
2023-03-20T07:36:24.902Z,9.30
2023-03-20T07:38:51.458Z,9.32
2023-03-20T07:41:17.956Z,9.37
2023-03-20T07:43:44.914Z,9.36
2023-03-20T07:46:11.528Z,9.40
2023-03-20T07:48:38.050Z,9.43
2023-03-20T07:51:05.097Z,9.61
2023-03-20T07:53:31.656Z,9.75
2023-03-20T07:55:58.142Z,9.44
2023-03-20T07:58:24.668Z,9.64
2023-03-20T08:00:51.072Z,9.76
2023-03-20T08:03:17.656Z,9.79
2023-03-20T08:05:47.125Z,9.91
2023-03-20T08:08:14.650Z,10.07
2023-03-20T08:10:41.441Z,10.11
2023-03-20T08:13:07.868Z,10.19
2023-03-20T08:15:34.796Z,10.27
2023-03-20T08:18:01.550Z,10.05
2023-03-20T08:20:28.897Z,10.41
2023-03-20T08:22:55.448Z,10.27
2023-03-20T08:25:21.911Z,10.23
2023-03-20T08:27:49.318Z,10.28
2023-03-20T08:30:16.088Z,10.32
2023-03-20T08:32:42.856Z,10.67
2023-03-20T08:35:25.727Z,10.71
2023-03-20T08:37:56.315Z,10.84
2023-03-20T08:40:23.014Z,10.81
2023-03-20T08:42:49.476Z,10.75
2023-03-20T08:45:17.019Z,10.64
2023-03-20T08:47:43.620Z,10.86
2023-03-20T08:50:11.120Z,11.04
2023-03-20T08:52:37.581Z,11.04
2023-03-20T08:55:04.225Z,10.91
2023-03-20T08:57:31.674Z,10.99
2023-03-20T08:59:58.076Z,11.19
2023-03-20T09:02:24.682Z,11.18
2023-03-20T09:04:52.672Z,11.31
2023-03-20T09:07:19.075Z,11.10
2023-03-20T09:09:45.672Z,11.31
2023-03-20T09:12:12.113Z,11.11
2023-03-20T09:14:38.594Z,11.44
2023-03-20T09:17:05.983Z,11.45
2023-03-20T09:19:32.560Z,11.78
2023-03-20T09:21:59.843Z,11.95
2023-03-20T09:24:26.963Z,11.88
2023-03-20T09:26:53.455Z,11.90
2023-03-20T09:29:19.915Z,11.71
2023-03-20T09:31:46.475Z,11.66
2023-03-20T09:34:12.901Z,11.50
2023-03-20T09:36:39.424Z,11.82
2023-03-20T09:39:05.818Z,12.03
2023-03-20T09:41:48.897Z,11.94
2023-03-20T09:44:46.992Z,11.74
2023-03-20T09:47:25.455Z,12.01
2023-03-20T09:50:04.157Z,12.32
2023-03-20T09:52:34.887Z,12.16
2023-03-20T09:55:12.328Z,12.23
2023-03-20T09:57:45.438Z,12.22
2023-03-20T10:00:21.112Z,12.44
2023-03-20T10:03:01.742Z,12.71
2023-03-20T10:05:31.430Z,12.74
2023-03-20T10:08:03.361Z,12.77
2023-03-20T10:10:42.469Z,12.93
2023-03-20T10:13:32.885Z,12.80
2023-03-20T10:16:18.241Z,12.64
2023-03-20T10:19:19.546Z,13.05
2023-03-20T10:21:49.423Z,13.95
2023-03-20T10:24:33.845Z,13.90
2023-03-20T10:27:11.295Z,13.63
2023-03-20T10:29:52.272Z,13.43
2023-03-20T10:32:35.013Z,13.51
2023-03-20T10:35:17.389Z,13.55
2023-03-20T10:38:20.994Z,13.46
2023-03-20T10:40:47.938Z,13.68
2023-03-20T10:43:43.314Z,13.81
2023-03-20T10:46:20.203Z,13.93
2023-03-20T10:48:52.348Z,14.06
2023-03-20T10:51:22.333Z,13.80
2023-03-20T10:53:56.510Z,13.95
2023-03-20T10:56:47.357Z,13.89
2023-03-20T10:59:25.378Z,14.21
2023-03-20T11:01:52.606Z,14.65
2023-03-20T11:04:19.478Z,14.26
2023-03-20T11:07:07.031Z,15.17
2023-03-20T11:09:34.268Z,14.85
2023-03-20T11:12:02.395Z,14.99
2023-03-20T11:14:38.910Z,14.54
2023-03-20T11:17:06.293Z,14.70
2023-03-20T11:19:35.719Z,14.96
2023-03-20T11:22:24.065Z,14.84
2023-03-20T11:25:01.672Z,14.67
2023-03-20T11:27:31.340Z,14.49
2023-03-20T11:30:00.236Z,14.32
2023-03-20T11:32:47.373Z,14.39
2023-03-20T11:35:25.685Z,14.26
2023-03-20T11:37:54.661Z,14.06
2023-03-20T11:40:32.340Z,14.12
2023-03-20T11:43:01.826Z,14.22
2023-03-20T11:45:50.654Z,14.36
2023-03-20T11:48:26.093Z,14.31
2023-03-20T11:51:03.530Z,14.36
2023-03-20T11:53:35.261Z,14.24
2023-03-20T11:56:25.280Z,14.23
2023-03-20T11:58:57.443Z,14.49
2023-03-20T12:01:26.099Z,14.39
2023-03-20T12:04:02.270Z,14.51
2023-03-20T12:06:42.693Z,14.49
2023-03-20T12:09:44.555Z,14.88
2023-03-20T12:12:48.669Z,14.72
2023-03-20T12:15:37.048Z,14.89
2023-03-20T12:18:09.424Z,14.88
2023-03-20T12:21:07.807Z,14.83
2023-03-20T12:24:02.300Z,14.91
2023-03-20T12:26:36.673Z,14.81
2023-03-20T12:29:24.717Z,14.77
2023-03-20T12:32:02.500Z,14.57
2023-03-20T12:34:39.801Z,14.51
2023-03-20T12:37:10.503Z,14.72
2023-03-20T12:39:41.501Z,14.76
2023-03-20T12:42:32.112Z,14.63
2023-03-20T12:45:05.972Z,14.32
2023-03-20T12:47:47.315Z,14.57
2023-03-20T12:50:42.873Z,14.62
2023-03-20T12:53:37.309Z,14.59
2023-03-20T12:56:22.403Z,14.78
2023-03-20T12:59:16.955Z,14.79
2023-03-20T13:01:58.317Z,14.96
2023-03-20T13:04:50.052Z,14.93
2023-03-20T13:07:21.858Z,14.96
2023-03-20T13:10:16.640Z,14.77
2023-03-20T13:13:07.812Z,15.03
2023-03-20T13:15:59.316Z,14.78
2023-03-20T13:18:50.843Z,14.36
2023-03-20T13:21:27.534Z,14.49
2023-03-20T13:24:09.957Z,14.38
2023-03-20T13:26:41.596Z,14.44
2023-03-20T13:29:16.566Z,14.61
2023-03-20T13:31:53.502Z,14.32
2023-03-20T13:34:47.939Z,14.37
2023-03-20T13:37:39.460Z,14.49
2023-03-20T13:40:24.433Z,14.14
2023-03-20T13:43:21.121Z,14.44
2023-03-20T13:45:52.076Z,14.42
2023-03-20T13:48:36.343Z,14.50
2023-03-20T13:51:10.858Z,14.62
2023-03-20T13:54:15.389Z,14.78
2023-03-20T13:57:19.579Z,14.65
2023-03-20T14:00:18.598Z,14.54
2023-03-20T14:03:24.623Z,14.43
2023-03-20T14:05:52.327Z,14.61
2023-03-20T14:08:33.434Z,14.65
2023-03-20T14:11:25.060Z,14.02
2023-03-20T14:13:56.389Z,14.27
2023-03-20T14:16:22.968Z,14.40
2023-03-20T14:19:04.708Z,14.50
2023-03-20T14:21:31.198Z,14.42
2023-03-20T14:24:03.115Z,14.46
2023-03-20T14:26:34.561Z,14.32
2023-03-20T14:29:21.069Z,14.40
2023-03-20T14:31:52.239Z,13.82
2023-03-20T14:34:24.755Z,14.16
2023-03-20T14:36:59.791Z,14.11
2023-03-20T14:39:50.605Z,14.17
2023-03-20T14:42:32.151Z,14.02
2023-03-20T14:45:13.837Z,13.96
2023-03-20T14:48:02.544Z,13.79
2023-03-20T14:50:47.030Z,13.85
2023-03-20T14:53:16.645Z,13.86
2023-03-20T14:55:49.124Z,13.63
2023-03-20T14:58:43.862Z,13.74
2023-03-20T15:01:21.648Z,13.94
2023-03-20T15:03:52.720Z,13.73
2023-03-20T15:06:22.122Z,13.83
2023-03-20T15:09:10.616Z,13.65
2023-03-20T15:11:37.677Z,13.67
2023-03-20T15:14:09.110Z,13.49
2023-03-20T15:16:37.415Z,13.43
2023-03-20T15:19:17.507Z,13.51
2023-03-20T15:21:45.299Z,13.49
2023-03-20T15:24:23.067Z,13.56
2023-03-20T15:26:55.757Z,13.45
2023-03-20T15:29:23.796Z,13.31
2023-03-20T15:32:12.775Z,13.06
2023-03-20T15:34:41.598Z,13.22
2023-03-20T15:37:15.052Z,13.17
2023-03-20T15:39:45.411Z,13.03
2023-03-20T15:42:21.813Z,13.07
2023-03-20T15:44:50.383Z,13.07
2023-03-20T15:47:21.218Z,12.88
2023-03-20T15:49:56.078Z,13.07
2023-03-20T15:52:52.685Z,13.11
2023-03-20T15:55:23.050Z,13.13
2023-03-20T15:57:52.714Z,12.81
2023-03-20T16:00:32.609Z,12.88
2023-03-20T16:03:02.190Z,12.78
2023-03-20T16:05:30.409Z,12.75
2023-03-20T16:07:57.244Z,12.76
2023-03-20T16:10:36.067Z,12.74
2023-03-20T16:13:04.333Z,12.89
2023-03-20T16:15:32.886Z,12.97
2023-03-20T16:18:02.425Z,12.92
2023-03-20T16:20:37.514Z,12.86
2023-03-20T16:23:07.442Z,12.68
2023-03-20T16:25:38.215Z,12.47
2023-03-20T16:28:08.817Z,12.70
2023-03-20T16:30:36.195Z,12.66
2023-03-20T16:33:11.213Z,12.69
2023-03-20T16:35:44.995Z,12.60
2023-03-20T16:38:30.736Z,12.70
2023-03-20T16:41:33.704Z,12.44
2023-03-20T16:44:08.713Z,12.64
2023-03-20T16:46:35.368Z,12.48
2023-03-20T16:49:39.495Z,12.56
2023-03-20T16:52:14.636Z,12.59
2023-03-20T16:54:41.141Z,12.59
2023-03-20T16:57:17.084Z,12.65
2023-03-20T16:59:43.743Z,12.56
2023-03-20T17:02:32.585Z,12.52
2023-03-20T17:05:06.299Z,12.54
2023-03-20T17:07:32.802Z,12.48
2023-03-20T17:09:59.763Z,12.40
2023-03-20T17:12:31.071Z,12.42
2023-03-20T17:14:57.540Z,12.36
2023-03-20T17:17:25.945Z,12.26
2023-03-20T17:19:53.117Z,12.01
2023-03-20T17:22:25.613Z,12.08
2023-03-20T17:24:52.573Z,11.92
2023-03-20T17:27:21.060Z,11.94
2023-03-20T17:29:49.673Z,11.89
2023-03-20T17:32:19.097Z,11.89
2023-03-20T17:34:45.838Z,11.82
2023-03-20T17:37:22.464Z,11.77
2023-03-20T17:39:48.969Z,11.66
2023-03-20T17:42:21.078Z,11.57
2023-03-20T17:44:48.215Z,11.48
2023-03-20T17:47:20.959Z,11.43
2023-03-20T17:49:48.752Z,11.43
2023-03-20T17:52:18.918Z,11.44
2023-03-20T17:54:46.403Z,11.43
2023-03-20T17:57:18.974Z,11.31
2023-03-20T17:59:45.522Z,11.38
2023-03-20T18:02:12.060Z,11.42
2023-03-20T18:04:38.830Z,11.38
2023-03-20T18:07:07.112Z,11.29
2023-03-20T18:09:33.691Z,11.32
2023-03-20T18:12:00.457Z,11.09
2023-03-20T18:14:26.994Z,10.96
2023-03-20T18:16:53.425Z,10.90
2023-03-20T18:19:29.481Z,10.84
2023-03-20T18:21:57.323Z,10.76
2023-03-20T18:24:24.182Z,10.71
2023-03-20T18:26:52.182Z,10.71
2023-03-20T18:29:19.664Z,10.66
2023-03-20T18:31:48.258Z,10.61
2023-03-20T18:34:15.223Z,10.56
2023-03-20T18:36:42.449Z,10.53
2023-03-20T18:39:21.605Z,10.49
2023-03-20T18:41:48.750Z,10.45
2023-03-20T18:44:15.729Z,10.49
2023-03-20T18:46:42.997Z,10.40
2023-03-20T18:49:17.350Z,10.45
2023-03-20T18:51:44.731Z,10.27
2023-03-20T18:54:11.511Z,10.20
2023-03-20T18:56:38.102Z,10.15
2023-03-20T18:59:07.798Z,10.08
2023-03-20T19:01:36.063Z,10.08
2023-03-20T19:04:03.242Z,10.04
2023-03-20T19:06:32.012Z,9.97
2023-03-20T19:08:58.649Z,10.00
2023-03-20T19:11:25.162Z,9.82
2023-03-20T19:13:53.452Z,9.89
2023-03-20T19:16:28.966Z,9.81
2023-03-20T19:18:58.932Z,9.67
2023-03-20T19:21:28.874Z,9.62
2023-03-20T19:24:00.558Z,9.81
2023-03-20T19:26:28.580Z,9.57
2023-03-20T19:28:57.863Z,9.65
2023-03-20T19:31:25.640Z,9.61
2023-03-20T19:33:52.681Z,9.56
2023-03-20T19:36:34.359Z,9.52
2023-03-20T19:39:02.606Z,9.59
2023-03-20T19:41:29.580Z,9.65
2023-03-20T19:43:57.487Z,9.54
2023-03-20T19:46:39.063Z,9.55
2023-03-20T19:49:06.715Z,9.38
2023-03-20T19:51:33.789Z,9.37
2023-03-20T19:54:00.659Z,9.41
2023-03-20T19:56:28.279Z,9.37
2023-03-20T19:58:55.020Z,9.25
2023-03-20T20:01:24.828Z,9.30
2023-03-20T20:03:53.475Z,9.18
2023-03-20T20:06:22.222Z,9.13
2023-03-20T20:08:49.914Z,9.15
2023-03-20T20:11:18.663Z,9.28
2023-03-20T20:14:07.232Z,9.26
2023-03-20T20:16:33.561Z,9.25
2023-03-20T20:19:00.440Z,9.23
2023-03-20T20:24:15.994Z,9.06
2023-03-20T20:26:53.362Z,9.04
2023-03-20T20:29:21.496Z,9.02
2023-03-20T20:31:48.027Z,9.07
2023-03-20T20:35:14.833Z,8.98
2023-03-20T20:39:48.123Z,8.82
2023-03-20T20:42:14.680Z,8.87
2023-03-20T20:44:41.339Z,8.95
2023-03-20T20:47:09.060Z,8.98
2023-03-20T20:49:36.110Z,8.95
2023-03-20T20:52:02.585Z,8.86
2023-03-20T20:54:29.242Z,8.75
2023-03-20T20:56:56.194Z,8.80
2023-03-20T20:59:23.001Z,8.86
2023-03-20T21:01:50.620Z,8.69
2023-03-20T21:04:17.289Z,8.77
2023-03-20T21:07:08.137Z,8.72
2023-03-20T21:09:30.604Z,8.72
2023-03-20T21:11:57.075Z,8.76
2023-03-20T21:14:23.646Z,8.61
2023-03-20T21:16:50.256Z,8.69
2023-03-20T21:19:16.892Z,8.58
2023-03-20T21:21:43.329Z,8.60
2023-03-20T21:24:30.605Z,8.69
2023-03-20T21:26:59.269Z,8.71
2023-03-20T21:29:26.049Z,8.74
2023-03-20T21:31:53.705Z,8.61
2023-03-20T21:34:20.670Z,8.56
2023-03-20T21:36:49.178Z,8.49
2023-03-20T21:39:16.507Z,8.43
2023-03-20T21:41:43.029Z,8.39
2023-03-20T21:44:16.662Z,8.26
2023-03-20T21:47:19.076Z,8.25
2023-03-20T21:56:10.350Z,8.01
2023-03-20T22:04:31.561Z,7.84
2023-03-20T22:26:49.098Z,7.69
2023-03-20T22:32:16.211Z,7.65
2023-03-20T22:40:42.133Z,7.71
2023-03-20T22:43:39.027Z,7.73
2023-03-20T22:45:26.804Z,7.75
2023-03-20T22:47:55.474Z,7.70
2023-03-20T22:50:22.096Z,7.82
2023-03-20T22:52:49.874Z,7.69
2023-03-20T22:55:17.593Z,7.55
2023-03-20T22:57:56.207Z,7.60
2023-03-20T23:00:27.111Z,7.62
2023-03-20T23:02:57.376Z,7.65
2023-03-20T23:05:29.913Z,7.77
2023-03-20T23:07:56.471Z,7.75
2023-03-20T23:10:23.811Z,7.75
2023-03-20T23:12:50.301Z,7.76
2023-03-20T23:15:16.888Z,7.68
2023-03-20T23:17:43.339Z,7.51
2023-03-20T23:20:14.897Z,7.62
2023-03-20T23:22:43.326Z,7.77
2023-03-20T23:25:30.743Z,7.78
2023-03-20T23:27:58.910Z,7.86
2023-03-20T23:30:30.916Z,7.86
2023-03-20T23:33:06.329Z,7.83
2023-03-20T23:35:32.958Z,7.77
2023-03-20T23:37:59.486Z,7.69
2023-03-20T23:40:25.974Z,7.73
2023-03-20T23:42:52.451Z,7.71
2023-03-20T23:45:20.801Z,7.64
2023-03-20T23:47:49.462Z,7.68
2023-03-20T23:50:27.717Z,7.72
2023-03-20T23:53:09.577Z,7.67
2023-03-20T23:55:45.269Z,7.73
2023-03-20T23:58:12.313Z,7.64
